首页
METAR-TAF:

METAR-TAF

机场 :

施韦比施哈尔, 德国

纬度: 49-07-06N, 经度: 9-47-02E, 海拔: 398米

当前天气观测

该预报发布于30分钟前的17:50 UTC
风速7节,风向
温度 4°C
湿度 93%
气压 1018 hPa
能見度: 7000
多云层高于300英尺
阴天层高于2100英尺

METAR: EDTY 191750Z 35007KT 7000 BKN003 OVC021 04/03 Q1018

时间: 19:20 (18:20 UTC)

预报

该预报发布于13分钟前的18:07 UTC
预报有效从19日的 18点(UTC)到 20日的 03点(UTC)
风速3节,风向多变
能见度10公里或以上
多云层高于800英尺
成为
从 19日的 18点(UTC)到 19日的 21点(UTC)
能見度: 4000
轻雾
短暂存在
从 19日的 18点(UTC)到 19日的 24点(UTC)
能見度: 6000
多云层高于400英尺
几率 30% :
短暂存在
从 20日的 00点(UTC)到 20日的 03点(UTC)
能見度: 1500
碎片雾

TAF: EDTY 191807Z 1918/2003 VRB03KT 9999 BKN008 BECMG 1918/1921 4000 BR TEMPO 1918/1924 6000 BKN004 PROB30 TEMPO 2000/2003 1500 BCFG

超过4000个机场的气象观测和天气预报(METAR&TAF报告)。

可查询的气象台以黄色和红色小点在地图上表示。

将鼠标移到小点上方,可查看气象台名称。

然后点击查看天气观测和预报。

如需切换地图:点击带黑十字的绿色按钮放大地图;点击带横线的绿色按钮缩小地图;或者点击绿色箭头查看邻近地区的地图。


METAR-TAF: